createdAt,value
2023-04-17T00:00:40.088Z,57.33
2023-04-17T00:01:42.493Z,57.21
2023-04-17T00:02:45.163Z,57.63
2023-04-17T00:03:47.470Z,57.61
2023-04-17T00:04:49.753Z,57.72
2023-04-17T00:05:54.153Z,57.74
2023-04-17T00:06:56.981Z,57.61
2023-04-17T00:08:00.070Z,57.67
2023-04-17T00:09:02.129Z,57.88
2023-04-17T00:10:08.245Z,57.81
2023-04-17T00:11:10.123Z,57.73
2023-04-17T00:12:12.247Z,57.24
2023-04-17T00:13:14.234Z,57.50
2023-04-17T00:14:16.118Z,57.38
2023-04-17T00:15:17.961Z,57.26
2023-04-17T00:16:19.912Z,57.77
2023-04-17T00:17:22.108Z,57.30
2023-04-17T00:18:23.995Z,57.33
2023-04-17T00:19:25.827Z,57.36
2023-04-17T00:20:27.663Z,57.79
2023-04-17T00:21:32.457Z,57.46
2023-04-17T00:22:34.693Z,57.58
2023-04-17T00:23:36.506Z,58.09
2023-04-17T00:24:38.323Z,57.75
2023-04-17T00:25:40.249Z,57.86
2023-04-17T00:26:42.109Z,57.90
2023-04-17T00:27:44.344Z,57.52
2023-04-17T00:28:47.538Z,57.36
2023-04-17T00:29:49.357Z,57.31
2023-04-17T00:30:51.279Z,57.94
2023-04-17T00:31:53.266Z,57.85
2023-04-17T00:32:55.472Z,57.88
2023-04-17T00:33:58.860Z,58.13
2023-04-17T00:35:00.992Z,57.64
2023-04-17T00:36:02.857Z,57.25
2023-04-17T00:37:04.742Z,57.45
2023-04-17T00:38:09.197Z,57.35
2023-04-17T00:39:11.309Z,57.77
2023-04-17T00:40:13.617Z,57.93
2023-04-17T00:41:15.461Z,57.90
2023-04-17T00:42:17.549Z,57.87
2023-04-17T00:43:19.905Z,57.85
2023-04-17T00:44:21.770Z,57.78
2023-04-17T00:45:23.657Z,57.98
2023-04-17T00:46:25.717Z,58.14
2023-04-17T00:47:27.868Z,57.69
2023-04-17T00:48:30.141Z,57.43
2023-04-17T00:49:32.761Z,57.55
2023-04-17T00:50:35.092Z,57.75
2023-04-17T00:51:37.085Z,58.27
2023-04-17T00:52:39.785Z,57.60
2023-04-17T00:53:42.296Z,57.80
2023-04-17T00:54:44.391Z,58.28
2023-04-17T00:55:48.261Z,58.25
2023-04-17T00:56:51.746Z,58.05
2023-04-17T00:57:53.857Z,57.96
2023-04-17T00:58:57.759Z,58.26
2023-04-17T00:59:59.895Z,58.78
2023-04-17T01:01:01.970Z,58.44
2023-04-17T01:02:04.401Z,58.52
2023-04-17T01:03:06.616Z,58.05
2023-04-17T01:04:10.365Z,58.44
2023-04-17T01:05:12.485Z,58.59
2023-04-17T01:06:14.748Z,58.28
2023-04-17T01:07:17.210Z,57.77
2023-04-17T01:08:19.532Z,57.78
2023-04-17T01:09:22.203Z,58.25
2023-04-17T01:10:24.256Z,58.22
2023-04-17T01:11:26.131Z,58.15
2023-04-17T01:12:28.183Z,57.95
2023-04-17T01:13:30.075Z,58.23
2023-04-17T01:14:32.244Z,58.59
2023-04-17T01:15:35.016Z,58.82
2023-04-17T01:16:40.267Z,58.53
2023-04-17T01:17:42.483Z,58.53
2023-04-17T01:18:44.744Z,59.08
2023-04-17T01:19:47.995Z,59.03
2023-04-17T01:20:49.932Z,59.11
2023-04-17T01:21:52.020Z,58.84
2023-04-17T01:22:54.147Z,58.34
2023-04-17T01:23:56.650Z,58.81
2023-04-17T01:24:59.911Z,58.44
2023-04-17T01:26:03.076Z,58.80
2023-04-17T01:27:07.017Z,58.57
2023-04-17T01:28:09.221Z,59.02
2023-04-17T01:29:12.715Z,58.95
2023-04-17T01:30:15.479Z,58.91
2023-04-17T01:31:17.986Z,58.92
2023-04-17T01:32:20.265Z,58.39
2023-04-17T01:33:22.268Z,58.64
2023-04-17T01:34:24.303Z,58.77
2023-04-17T01:35:26.570Z,58.50
2023-04-17T01:36:29.423Z,58.79
2023-04-17T01:37:31.385Z,58.63
2023-04-17T01:38:33.227Z,58.58
2023-04-17T01:39:36.447Z,58.41
2023-04-17T01:40:38.672Z,58.66
2023-04-17T01:41:40.587Z,58.47
2023-04-17T01:42:42.458Z,58.30
2023-04-17T01:43:46.494Z,58.08
2023-04-17T01:44:48.361Z,58.33
2023-04-17T01:45:50.565Z,58.28
2023-04-17T01:46:52.581Z,58.53
2023-04-17T01:47:54.576Z,58.60
2023-04-17T01:48:56.854Z,58.14
2023-04-17T01:49:59.022Z,58.10
2023-04-17T01:51:01.424Z,58.35
2023-04-17T01:52:03.372Z,58.57
2023-04-17T01:53:05.233Z,58.60
2023-04-17T01:54:08.163Z,58.79
2023-04-17T01:55:10.229Z,58.58
2023-04-17T01:56:13.795Z,58.35
2023-04-17T01:57:16.894Z,57.98
2023-04-17T01:58:18.816Z,58.36
2023-04-17T01:59:20.995Z,58.92
2023-04-17T02:00:23.639Z,58.48
2023-04-17T02:01:26.063Z,58.41
2023-04-17T02:02:28.073Z,58.49
2023-04-17T02:03:31.416Z,58.69
2023-04-17T02:04:33.602Z,58.40
2023-04-17T02:05:35.950Z,58.95
2023-04-17T02:06:40.670Z,58.88
2023-04-17T02:07:42.601Z,58.89
2023-04-17T02:08:44.523Z,58.56
2023-04-17T02:09:46.401Z,58.90
2023-04-17T02:10:48.278Z,59.39
2023-04-17T02:11:50.505Z,58.55
2023-04-17T02:12:53.962Z,58.09
2023-04-17T02:13:56.013Z,58.36
2023-04-17T02:15:01.178Z,58.31
2023-04-17T02:16:03.472Z,58.39
2023-04-17T02:17:05.906Z,57.97
2023-04-17T02:18:08.163Z,58.08
2023-04-17T02:19:10.421Z,58.06
2023-04-17T02:20:12.772Z,58.07
2023-04-17T02:21:14.659Z,58.05
2023-04-17T02:22:18.486Z,58.43
2023-04-17T02:23:20.343Z,58.38
2023-04-17T02:24:22.212Z,58.62
2023-04-17T02:25:24.107Z,58.19
2023-04-17T02:26:28.203Z,58.36
2023-04-17T02:27:30.428Z,58.62
2023-04-17T02:28:32.391Z,58.57
2023-04-17T02:29:36.954Z,58.21
2023-04-17T02:30:38.932Z,58.24
2023-04-17T02:31:43.649Z,58.47
2023-04-17T02:32:46.565Z,58.33
2023-04-17T02:33:48.479Z,58.22
2023-04-17T02:34:51.508Z,58.47
2023-04-17T02:35:53.458Z,58.31
2023-04-17T02:36:57.397Z,58.47
2023-04-17T02:38:00.225Z,58.22
2023-04-17T02:39:02.481Z,58.32
2023-04-17T02:40:07.329Z,58.43
2023-04-17T02:41:09.188Z,58.36
2023-04-17T02:42:13.092Z,57.99
2023-04-17T02:43:17.230Z,57.90
2023-04-17T02:44:19.109Z,58.59
2023-04-17T02:45:21.173Z,58.85
2023-04-17T02:46:23.147Z,59.08
2023-04-17T02:47:25.737Z,59.20
2023-04-17T02:48:27.964Z,59.11
2023-04-17T02:49:30.189Z,58.53
2023-04-17T02:50:32.801Z,58.39
2023-04-17T02:51:35.469Z,58.64
2023-04-17T02:52:37.460Z,58.47
2023-04-17T02:53:39.611Z,58.65
2023-04-17T02:54:41.459Z,58.64
2023-04-17T02:55:43.653Z,58.67
2023-04-17T02:56:45.692Z,58.80
2023-04-17T02:57:47.635Z,58.17
2023-04-17T02:58:49.834Z,58.10
2023-04-17T02:59:52.227Z,58.48
2023-04-17T03:01:03.936Z,58.63
2023-04-17T03:02:06.006Z,58.48
2023-04-17T03:03:08.292Z,58.14
2023-04-17T03:04:11.106Z,58.32
2023-04-17T03:05:15.036Z,58.32
2023-04-17T03:06:17.008Z,58.99
2023-04-17T03:07:20.522Z,58.79
2023-04-17T03:08:23.454Z,59.07
2023-04-17T03:09:26.119Z,58.80
2023-04-17T03:10:28.089Z,58.63
2023-04-17T03:11:29.945Z,58.94
2023-04-17T03:12:31.857Z,58.78
2023-04-17T03:13:36.788Z,58.80
2023-04-17T03:14:38.973Z,58.53
2023-04-17T03:15:41.317Z,58.82
2023-04-17T03:16:43.218Z,58.50
2023-04-17T03:17:45.606Z,58.79
2023-04-17T03:18:47.520Z,58.64
2023-04-17T03:19:49.727Z,58.26
2023-04-17T03:20:52.843Z,58.61
2023-04-17T03:21:54.921Z,58.59
2023-04-17T03:22:56.765Z,58.54
2023-04-17T03:23:58.716Z,59.10
2023-04-17T03:25:00.923Z,58.75
2023-04-17T03:26:04.231Z,59.25
2023-04-17T03:27:06.589Z,59.32
2023-04-17T03:28:10.528Z,59.15
2023-04-17T03:29:12.557Z,58.81
2023-04-17T03:30:15.291Z,58.81
2023-04-17T03:31:18.555Z,58.84
2023-04-17T03:32:21.327Z,59.22
2023-04-17T03:33:24.267Z,58.80
2023-04-17T03:34:26.320Z,58.72
2023-04-17T03:35:28.752Z,59.13
2023-04-17T03:36:30.933Z,59.28
2023-04-17T03:37:32.855Z,59.55
2023-04-17T03:38:37.973Z,59.34
2023-04-17T03:39:40.607Z,59.31
2023-04-17T03:40:42.857Z,59.21
2023-04-17T03:41:45.229Z,59.36
2023-04-17T03:42:47.164Z,58.97
2023-04-17T03:43:49.110Z,59.01
2023-04-17T03:44:50.991Z,59.06
2023-04-17T03:45:53.835Z,59.42
2023-04-17T03:46:55.930Z,59.19
2023-04-17T03:47:57.996Z,59.63
2023-04-17T03:49:00.319Z,59.44
2023-04-17T03:50:02.863Z,59.56
2023-04-17T03:51:06.433Z,59.90
2023-04-17T03:52:08.415Z,60.13
2023-04-17T03:53:10.496Z,60.43
2023-04-17T03:54:13.058Z,60.44
2023-04-17T03:55:16.956Z,60.46
2023-04-17T03:56:19.520Z,60.45
2023-04-17T03:57:21.454Z,60.33
2023-04-17T03:58:23.800Z,60.43
2023-04-17T03:59:25.773Z,60.18
2023-04-17T04:00:28.608Z,60.17
2023-04-17T04:01:32.782Z,59.84
2023-04-17T04:02:35.546Z,59.91
2023-04-17T04:03:38.086Z,60.25
2023-04-17T04:04:40.815Z,61.35
2023-04-17T04:05:43.629Z,59.89
2023-04-17T04:06:47.246Z,59.87
2023-04-17T04:07:49.346Z,59.54
2023-04-17T04:08:53.335Z,59.41
2023-04-17T04:09:55.934Z,59.93
2023-04-17T04:10:58.232Z,60.19
2023-04-17T04:12:00.715Z,59.97
2023-04-17T04:13:02.812Z,59.62
2023-04-17T04:14:04.802Z,59.92
2023-04-17T04:15:08.268Z,60.03
2023-04-17T04:16:10.746Z,63.48
2023-04-17T04:17:13.746Z,61.29
2023-04-17T04:18:17.406Z,59.04
2023-04-17T04:19:19.584Z,58.84
2023-04-17T04:20:24.884Z,59.06
2023-04-17T04:21:28.217Z,59.53
2023-04-17T04:22:30.806Z,59.98
2023-04-17T04:23:33.783Z,59.38
2023-04-17T04:24:36.470Z,59.39
2023-04-17T04:25:41.729Z,59.36
2023-04-17T04:26:47.250Z,59.27
2023-04-17T04:27:49.897Z,58.52
2023-04-17T04:28:53.621Z,59.20
2023-04-17T04:29:58.844Z,59.50
2023-04-17T04:31:02.803Z,59.07
2023-04-17T04:32:09.698Z,59.17
2023-04-17T04:33:13.409Z,59.16
2023-04-17T04:34:16.924Z,59.19
2023-04-17T04:35:19.085Z,59.62
2023-04-17T04:36:21.653Z,60.08
2023-04-17T04:37:29.871Z,59.98
2023-04-17T04:38:33.261Z,59.89
2023-04-17T04:39:37.989Z,59.48
2023-04-17T04:40:43.824Z,60.24
2023-04-17T04:41:52.364Z,59.92
2023-04-17T04:42:55.972Z,60.20
2023-04-17T04:43:58.361Z,59.84
2023-04-17T04:45:00.443Z,60.17
2023-04-17T04:46:03.802Z,60.80
2023-04-17T04:47:06.409Z,60.30
2023-04-17T04:48:08.783Z,59.99
2023-04-17T04:49:11.545Z,60.14
2023-04-17T04:50:13.658Z,60.33
2023-04-17T04:51:16.091Z,60.45
2023-04-17T04:52:19.174Z,76.20
2023-04-17T04:53:21.685Z,61.79
2023-04-17T04:54:24.809Z,60.57
2023-04-17T04:55:26.810Z,60.17
2023-04-17T04:56:30.470Z,60.10
2023-04-17T04:57:34.452Z,59.71
2023-04-17T04:58:38.573Z,59.75
2023-04-17T04:59:40.931Z,59.18
2023-04-17T05:00:47.489Z,59.08
2023-04-17T05:01:50.596Z,59.51
2023-04-17T05:02:53.196Z,59.45
2023-04-17T05:03:58.127Z,59.19
2023-04-17T05:05:03.147Z,59.55
2023-04-17T05:06:06.628Z,59.23
2023-04-17T05:07:09.061Z,59.44
2023-04-17T05:08:12.248Z,59.50
2023-04-17T05:09:16.705Z,59.03
2023-04-17T05:10:19.594Z,59.40
2023-04-17T05:11:22.944Z,59.10
2023-04-17T05:12:24.874Z,58.96
2023-04-17T05:13:26.709Z,58.57
2023-04-17T05:14:29.395Z,58.69
2023-04-17T05:15:31.876Z,59.16
2023-04-17T05:16:33.963Z,59.09
2023-04-17T05:17:36.530Z,58.82
2023-04-17T05:18:38.732Z,58.95
2023-04-17T05:19:42.559Z,58.81
2023-04-17T05:20:45.049Z,59.13
2023-04-17T05:21:47.219Z,59.60
2023-04-17T05:22:50.608Z,59.77
2023-04-17T05:23:52.530Z,59.65
2023-04-17T05:24:54.467Z,59.28
2023-04-17T05:25:56.711Z,59.13
2023-04-17T05:26:59.172Z,59.63
2023-04-17T05:28:01.068Z,60.04
2023-04-17T05:29:02.998Z,60.01
2023-04-17T05:30:05.751Z,60.29
2023-04-17T05:31:08.738Z,77.32
2023-04-17T05:32:11.212Z,62.46
2023-04-17T05:33:13.780Z,60.97
2023-04-17T05:34:16.550Z,60.51
2023-04-17T05:35:19.103Z,59.53
2023-04-17T05:36:23.781Z,59.11
2023-04-17T05:37:27.488Z,60.26
2023-04-17T05:38:30.117Z,60.00
2023-04-17T05:39:32.177Z,60.18
2023-04-17T05:40:34.597Z,60.36
2023-04-17T05:41:36.771Z,59.99
2023-04-17T05:42:38.786Z,59.26
2023-04-17T05:43:42.698Z,58.96
2023-04-17T05:44:44.660Z,58.97
2023-04-17T05:45:47.673Z,58.61
2023-04-17T05:46:49.868Z,58.90
2023-04-17T05:47:51.787Z,59.05
2023-04-17T05:48:53.669Z,58.75
2023-04-17T05:49:58.229Z,60.83
2023-04-17T05:51:02.170Z,59.36
2023-04-17T05:52:05.062Z,58.57
2023-04-17T05:53:08.279Z,58.86
2023-04-17T05:54:10.786Z,59.43
2023-04-17T05:55:15.548Z,58.96
2023-04-17T05:56:18.024Z,58.62
2023-04-17T05:57:20.336Z,58.86
2023-04-17T05:58:24.497Z,59.12
2023-04-17T05:59:27.934Z,59.39
2023-04-17T06:00:31.295Z,59.46
2023-04-17T06:01:35.974Z,59.35
2023-04-17T06:02:39.136Z,61.67
2023-04-17T06:03:41.435Z,59.60
2023-04-17T06:04:45.049Z,58.97
2023-04-17T06:05:47.455Z,59.20
2023-04-17T06:06:49.711Z,59.26
2023-04-17T06:07:51.921Z,59.71
2023-04-17T06:08:57.074Z,59.25
2023-04-17T06:09:59.453Z,59.62
2023-04-17T06:11:01.960Z,58.45
2023-04-17T06:12:05.474Z,58.09
2023-04-17T06:13:07.950Z,58.00
2023-04-17T06:14:09.932Z,58.02
2023-04-17T06:15:12.282Z,58.28
2023-04-17T06:16:14.439Z,57.62
2023-04-17T06:17:16.844Z,57.73
2023-04-17T06:18:18.827Z,57.91
2023-04-17T06:19:22.375Z,57.67
2023-04-17T06:20:24.542Z,58.33
2023-04-17T06:21:26.864Z,57.86
2023-04-17T06:22:29.105Z,58.24
2023-04-17T06:23:31.205Z,57.63
2023-04-17T06:24:33.239Z,57.89
2023-04-17T06:25:35.232Z,58.11
2023-04-17T06:26:37.149Z,58.16
2023-04-17T06:27:39.485Z,59.01
2023-04-17T06:28:41.402Z,58.43
2023-04-17T06:29:43.910Z,58.68
2023-04-17T06:30:46.098Z,58.96
2023-04-17T06:31:48.061Z,58.47
2023-04-17T06:32:50.768Z,58.80
2023-04-17T06:33:53.857Z,58.32
2023-04-17T06:34:59.559Z,58.12
2023-04-17T06:36:04.048Z,57.98
2023-04-17T06:37:07.261Z,58.37
2023-04-17T06:38:12.963Z,58.52
2023-04-17T06:39:15.037Z,58.87
2023-04-17T06:40:17.516Z,58.90
2023-04-17T06:41:19.376Z,58.41
2023-04-17T06:42:21.308Z,57.96
2023-04-17T06:43:28.232Z,58.15
2023-04-17T06:44:30.125Z,57.17
2023-04-17T06:45:35.205Z,57.81
2023-04-17T06:46:41.379Z,57.45
2023-04-17T06:47:46.507Z,58.34
2023-04-17T06:48:52.328Z,58.02
2023-04-17T06:49:54.220Z,57.80
2023-04-17T06:50:56.280Z,58.10
2023-04-17T06:51:59.325Z,58.02
2023-04-17T06:53:01.177Z,57.61
2023-04-17T06:54:03.321Z,57.18
2023-04-17T06:55:05.863Z,57.17
2023-04-17T06:56:07.798Z,57.08
2023-04-17T06:57:10.750Z,56.95
2023-04-17T06:58:13.471Z,56.21
2023-04-17T06:59:15.624Z,55.57
2023-04-17T07:00:17.988Z,55.72
2023-04-17T07:01:20.891Z,55.42
2023-04-17T07:02:23.104Z,54.55
2023-04-17T07:03:25.537Z,53.82
2023-04-17T07:04:27.843Z,53.75
2023-04-17T07:05:29.772Z,53.17
2023-04-17T07:06:33.844Z,53.61
2023-04-17T07:07:36.466Z,53.71
2023-04-17T07:08:39.103Z,53.53
2023-04-17T07:09:43.000Z,53.16
2023-04-17T07:10:44.881Z,53.00
2023-04-17T07:11:46.762Z,53.05
2023-04-17T07:12:48.637Z,53.05
2023-04-17T07:13:50.595Z,53.10
2023-04-17T07:14:52.982Z,51.57
2023-04-17T07:15:55.612Z,51.08
2023-04-17T07:16:57.611Z,52.78
2023-04-17T07:17:59.568Z,50.85
2023-04-17T07:19:01.453Z,50.93
2023-04-17T07:20:07.234Z,49.33
2023-04-17T07:21:09.119Z,51.25
2023-04-17T07:22:11.119Z,51.67
2023-04-17T07:23:13.007Z,50.96
2023-04-17T07:24:14.878Z,49.80
2023-04-17T07:25:17.184Z,50.04
2023-04-17T07:26:19.042Z,50.07
2023-04-17T07:27:21.670Z,48.27
2023-04-17T07:28:25.115Z,48.33
2023-04-17T07:29:27.089Z,48.11
2023-04-17T07:30:29.320Z,47.98
2023-04-17T07:31:31.276Z,47.80
2023-04-17T07:32:33.251Z,48.18
2023-04-17T07:33:40.458Z,47.83
2023-04-17T07:34:42.981Z,48.05
2023-04-17T07:35:45.259Z,47.98
2023-04-17T07:36:47.337Z,48.97
2023-04-17T07:37:49.413Z,48.87
2023-04-17T07:38:51.325Z,48.85
2023-04-17T07:39:53.667Z,48.74
2023-04-17T07:40:55.916Z,49.84
2023-04-17T07:41:57.953Z,49.31
2023-04-17T07:42:59.820Z,49.52
2023-04-17T07:44:03.583Z,49.62
2023-04-17T07:45:06.297Z,49.75
2023-04-17T07:46:08.457Z,50.06
2023-04-17T07:47:10.505Z,49.59
2023-04-17T07:48:12.494Z,49.05
2023-04-17T07:49:14.644Z,48.90
2023-04-17T07:50:16.731Z,49.03
2023-04-17T07:51:18.945Z,48.32
2023-04-17T07:52:20.857Z,48.66
2023-04-17T07:53:25.662Z,48.34
2023-04-17T07:54:27.648Z,47.74
2023-04-17T07:55:29.583Z,47.67
2023-04-17T07:56:34.512Z,47.15
2023-04-17T07:57:36.507Z,46.54
2023-04-17T07:58:38.389Z,46.37
2023-04-17T07:59:40.726Z,46.79
2023-04-17T08:00:43.551Z,46.29
2023-04-17T08:01:47.889Z,46.21
2023-04-17T08:02:50.045Z,46.22
2023-04-17T08:03:52.960Z,46.36
2023-04-17T08:04:55.548Z,46.21
2023-04-17T08:05:58.750Z,45.44
2023-04-17T08:07:01.089Z,46.19
2023-04-17T08:08:03.017Z,45.51
2023-04-17T08:09:04.896Z,45.16
2023-04-17T08:10:07.186Z,46.08
2023-04-17T08:11:09.047Z,46.26
2023-04-17T08:12:11.242Z,46.78
2023-04-17T08:13:13.148Z,45.21
2023-04-17T08:14:16.302Z,45.26
2023-04-17T08:15:18.715Z,46.30
2023-04-17T08:16:20.609Z,45.99
2023-04-17T08:17:23.612Z,46.04
2023-04-17T08:18:25.750Z,47.51
2023-04-17T08:19:27.677Z,47.30
2023-04-17T08:20:29.549Z,47.04
2023-04-17T08:21:31.698Z,46.91
2023-04-17T08:22:39.233Z,46.72
2023-04-17T08:23:41.850Z,46.99
2023-04-17T08:24:43.724Z,46.69
2023-04-17T08:25:46.154Z,46.34
2023-04-17T08:26:48.051Z,45.90
2023-04-17T08:27:50.581Z,45.32
2023-04-17T08:28:53.812Z,45.07
2023-04-17T08:29:56.559Z,46.22
2023-04-17T08:30:58.581Z,44.97
2023-04-17T08:33:09.160Z,44.36
2023-04-17T08:34:14.833Z,44.70
2023-04-17T08:35:17.563Z,44.36
2023-04-17T08:36:19.430Z,44.04
2023-04-17T08:37:21.520Z,43.64
2023-04-17T08:38:23.714Z,44.03
2023-04-17T08:39:27.146Z,44.31
2023-04-17T08:40:29.038Z,45.42
2023-04-17T08:41:38.095Z,44.61
2023-04-17T08:42:42.064Z,44.57
2023-04-17T08:43:49.176Z,44.94
2023-04-17T08:44:51.256Z,45.74
2023-04-17T08:45:56.771Z,43.93
2023-04-17T08:46:58.983Z,44.15
2023-04-17T08:48:01.079Z,44.27
2023-04-17T08:49:03.625Z,43.85
2023-04-17T08:50:15.006Z,44.04
2023-04-17T08:51:17.017Z,44.17
2023-04-17T08:52:19.149Z,44.27
2023-04-17T08:53:21.708Z,43.25
2023-04-17T08:54:23.919Z,43.84
2023-04-17T08:55:29.028Z,43.26
2023-04-17T08:56:31.004Z,43.67
2023-04-17T08:57:32.848Z,45.55
2023-04-17T08:58:35.301Z,45.60
2023-04-17T08:59:37.526Z,44.63
2023-04-17T09:00:41.383Z,44.56
2023-04-17T09:02:03.462Z,44.85
2023-04-17T09:03:08.208Z,44.26
2023-04-17T09:04:10.739Z,44.65
2023-04-17T09:05:21.811Z,45.33
2023-04-17T09:06:23.665Z,45.41
2023-04-17T09:07:32.116Z,45.51
2023-04-17T09:08:33.974Z,45.39
2023-04-17T09:09:50.716Z,45.08
2023-04-17T09:10:54.926Z,44.63
2023-04-17T09:12:10.526Z,44.18
2023-04-17T09:13:16.801Z,44.46
2023-04-17T09:14:37.058Z,44.70
2023-04-17T09:15:39.037Z,44.17
2023-04-17T09:16:54.620Z,44.94
2023-04-17T09:17:56.729Z,45.56
2023-04-17T09:19:07.859Z,44.83
2023-04-17T09:20:12.337Z,44.69
2023-04-17T09:21:16.819Z,45.55
2023-04-17T09:22:21.854Z,45.16
2023-04-17T09:23:23.816Z,44.76
2023-04-17T09:24:35.466Z,45.36
2023-04-17T09:25:37.422Z,44.37
2023-04-17T09:26:39.438Z,45.48
2023-04-17T09:27:41.608Z,45.68
2023-04-17T09:29:03.790Z,50.30
2023-04-17T09:30:07.083Z,47.18
2023-04-17T09:31:18.454Z,45.78
2023-04-17T09:32:20.347Z,48.36
2023-04-17T09:33:22.520Z,50.11
2023-04-17T09:34:24.475Z,47.94
2023-04-17T09:35:26.573Z,50.00
2023-04-17T09:36:30.631Z,47.05
2023-04-17T09:37:51.267Z,47.06
2023-04-17T09:38:54.381Z,47.49
2023-04-17T09:39:57.755Z,47.46
2023-04-17T09:40:59.736Z,47.71
2023-04-17T09:42:06.460Z,47.49
2023-04-17T09:43:10.389Z,47.16
2023-04-17T09:44:25.705Z,46.80
2023-04-17T09:45:33.537Z,46.88
2023-04-17T09:46:39.616Z,47.04
2023-04-17T09:47:44.677Z,47.36
2023-04-17T09:48:47.740Z,47.21
2023-04-17T09:49:55.714Z,47.16
2023-04-17T09:50:57.780Z,47.41
2023-04-17T09:52:00.153Z,47.34
2023-04-17T09:53:04.301Z,47.08
2023-04-17T09:54:07.128Z,47.44
2023-04-17T09:55:11.053Z,48.03
2023-04-17T09:56:13.689Z,47.81
2023-04-17T09:57:15.827Z,47.89
2023-04-17T09:58:18.363Z,47.13
2023-04-17T09:59:20.559Z,47.25
2023-04-17T10:00:27.078Z,47.74
2023-04-17T10:01:33.986Z,47.84
2023-04-17T10:02:37.041Z,47.40
2023-04-17T10:03:40.245Z,47.60
2023-04-17T10:04:44.076Z,48.27
2023-04-17T10:05:46.262Z,47.74
2023-04-17T10:06:49.866Z,48.27
2023-04-17T10:07:51.700Z,48.04
2023-04-17T10:08:54.584Z,48.54
2023-04-17T10:09:56.599Z,48.17
2023-04-17T10:11:06.425Z,47.83
2023-04-17T10:12:15.047Z,48.06
2023-04-17T10:13:17.791Z,47.07
2023-04-17T10:14:32.680Z,47.30
2023-04-17T10:15:35.518Z,47.66
2023-04-17T10:16:38.650Z,47.98
2023-04-17T10:17:41.011Z,48.10
2023-04-17T10:18:43.017Z,47.41
2023-04-17T10:19:44.860Z,46.94
2023-04-17T10:20:48.457Z,46.35
2023-04-17T10:22:18.409Z,47.21
2023-04-17T10:23:34.820Z,46.02
2023-04-17T10:24:36.743Z,45.24
2023-04-17T10:25:38.621Z,45.68
2023-04-17T10:26:40.543Z,46.14
2023-04-17T10:27:45.445Z,45.62
2023-04-17T10:28:49.335Z,45.96
2023-04-17T10:29:58.864Z,44.61
2023-04-17T10:31:02.048Z,46.37
2023-04-17T10:32:10.193Z,45.86
2023-04-17T10:33:21.898Z,46.35
2023-04-17T10:34:37.390Z,45.84
2023-04-17T10:35:39.390Z,45.89
2023-04-17T10:36:41.232Z,44.80
2023-04-17T10:37:51.956Z,44.57
2023-04-17T10:39:13.725Z,45.59
2023-04-17T10:40:22.247Z,44.93
2023-04-17T10:41:24.204Z,45.31
2023-04-17T10:42:28.770Z,45.54
2023-04-17T10:43:31.243Z,45.81
2023-04-17T10:44:39.833Z,45.34
2023-04-17T10:46:14.556Z,45.08
2023-04-17T10:47:21.574Z,45.21
2023-04-17T10:48:29.129Z,45.88
2023-04-17T10:49:56.450Z,45.18
2023-04-17T10:51:00.276Z,45.72
2023-04-17T10:52:02.194Z,45.35
2023-04-17T10:53:04.631Z,44.94
2023-04-17T10:54:10.134Z,44.94
2023-04-17T10:55:20.755Z,45.46
2023-04-17T10:56:49.328Z,46.13
2023-04-17T10:58:01.202Z,46.50
2023-04-17T10:59:04.054Z,45.61
2023-04-17T11:00:12.547Z,46.22
2023-04-17T11:01:14.615Z,45.26
2023-04-17T11:02:17.264Z,45.87
2023-04-17T11:03:23.040Z,46.08
2023-04-17T11:04:29.990Z,46.45
2023-04-17T11:05:32.665Z,46.75
2023-04-17T11:06:40.032Z,46.05
2023-04-17T11:07:44.342Z,46.51
2023-04-17T11:08:47.650Z,45.75
2023-04-17T11:09:52.254Z,45.62
2023-04-17T11:10:56.433Z,45.74
2023-04-17T11:12:03.486Z,46.71
2023-04-17T11:13:06.090Z,45.95
2023-04-17T11:14:19.410Z,46.37
2023-04-17T11:15:31.535Z,46.27
2023-04-17T11:16:33.676Z,46.41
2023-04-17T11:17:38.497Z,46.82
2023-04-17T11:18:41.489Z,47.76
2023-04-17T11:19:45.259Z,46.95
2023-04-17T11:20:50.018Z,47.53
2023-04-17T11:22:01.374Z,48.14
2023-04-17T11:23:04.574Z,46.74
2023-04-17T11:24:06.867Z,47.22
2023-04-17T11:25:08.936Z,47.61
2023-04-17T11:26:15.822Z,47.36
2023-04-17T11:27:17.716Z,47.67
2023-04-17T11:28:19.561Z,47.90
2023-04-17T11:29:23.058Z,47.45
2023-04-17T11:30:37.763Z,47.71
2023-04-17T11:31:39.933Z,47.69
2023-04-17T11:32:45.105Z,47.78
2023-04-17T11:33:48.419Z,48.28
2023-04-17T11:34:51.890Z,47.94
2023-04-17T11:35:54.750Z,48.63
2023-04-17T11:36:58.403Z,48.67
2023-04-17T11:38:06.975Z,49.19
2023-04-17T11:39:09.081Z,49.53
2023-04-17T11:40:11.488Z,48.76
2023-04-17T11:41:13.707Z,48.40
2023-04-17T11:42:26.589Z,48.16
2023-04-17T11:43:30.015Z,48.62
2023-04-17T11:44:31.896Z,48.64
2023-04-17T11:45:35.733Z,47.91
2023-04-17T11:46:37.765Z,47.91
2023-04-17T11:47:40.481Z,48.58
2023-04-17T11:48:42.433Z,47.81
2023-04-17T11:49:44.465Z,47.52
2023-04-17T11:50:46.672Z,48.34
2023-04-17T11:51:48.568Z,49.00
2023-04-17T11:52:50.502Z,48.63
2023-04-17T11:53:52.354Z,49.43
2023-04-17T11:54:58.322Z,48.57
2023-04-17T11:56:20.918Z,48.65
2023-04-17T11:57:22.626Z,48.66
2023-04-17T11:58:24.488Z,48.57
2023-04-17T11:59:31.302Z,48.67
2023-04-17T12:00:34.091Z,49.12
2023-04-17T12:01:51.987Z,49.44
2023-04-17T12:02:53.983Z,49.05
2023-04-17T12:03:58.192Z,49.75
2023-04-17T12:05:17.790Z,49.47
2023-04-17T12:06:20.366Z,49.82
2023-04-17T12:07:26.506Z,49.63
2023-04-17T12:08:29.683Z,49.21
2023-04-17T12:09:32.714Z,49.38
2023-04-17T12:10:41.974Z,50.04
2023-04-17T12:11:43.853Z,50.03
2023-04-17T12:12:46.107Z,50.54
2023-04-17T12:13:48.133Z,50.23
2023-04-17T12:14:49.998Z,50.07
2023-04-17T12:15:52.117Z,49.97
2023-04-17T12:16:54.053Z,50.48
2023-04-17T12:17:56.533Z,50.72
2023-04-17T12:18:58.781Z,50.32
2023-04-17T12:20:04.090Z,50.40
2023-04-17T12:21:06.204Z,51.04
2023-04-17T12:22:08.065Z,50.38
2023-04-17T12:23:10.530Z,51.02
2023-04-17T12:24:12.618Z,51.14
2023-04-17T12:25:14.760Z,51.04
2023-04-17T12:26:16.630Z,51.40
2023-04-17T12:27:19.976Z,51.45
2023-04-17T12:28:22.242Z,51.74
2023-04-17T12:29:36.766Z,52.49
2023-04-17T12:30:45.473Z,53.00
2023-04-17T12:31:47.471Z,52.67
2023-04-17T12:32:49.630Z,53.06
2023-04-17T12:33:52.683Z,52.88
2023-04-17T12:34:56.121Z,53.24
2023-04-17T12:35:59.045Z,52.67
2023-04-17T12:37:01.164Z,52.99
2023-04-17T12:38:03.041Z,52.93
2023-04-17T12:39:05.267Z,52.82
2023-04-17T12:40:08.225Z,52.38
2023-04-17T12:41:10.349Z,53.39
2023-04-17T12:42:12.204Z,52.88
2023-04-17T12:43:14.070Z,53.13
2023-04-17T12:44:16.232Z,53.25
2023-04-17T12:45:18.609Z,53.89
2023-04-17T12:46:20.757Z,53.66
2023-04-17T12:47:22.792Z,53.56
2023-04-17T12:48:24.649Z,54.05
2023-04-17T12:49:26.862Z,53.31
2023-04-17T12:50:28.767Z,53.53
2023-04-17T12:51:31.192Z,53.37
2023-04-17T12:52:34.417Z,53.38
2023-04-17T12:53:36.314Z,53.42
2023-04-17T12:54:40.281Z,53.76
2023-04-17T12:55:44.064Z,53.20
2023-04-17T12:56:46.169Z,51.61
2023-04-17T12:57:48.129Z,51.24
2023-04-17T12:58:50.047Z,51.89
2023-04-17T12:59:52.400Z,51.79
2023-04-17T13:00:54.419Z,52.32
2023-04-17T13:01:56.473Z,52.88
2023-04-17T13:02:58.971Z,52.88
2023-04-17T13:04:01.278Z,52.39
2023-04-17T13:05:05.967Z,52.02
2023-04-17T13:06:07.988Z,52.08
2023-04-17T13:07:10.675Z,51.99
2023-04-17T13:08:15.110Z,51.19
2023-04-17T13:09:18.009Z,51.88
2023-04-17T13:10:20.332Z,51.50
2023-04-17T13:11:22.630Z,51.39
2023-04-17T13:12:24.953Z,52.25
2023-04-17T13:13:26.880Z,51.50
2023-04-17T13:14:28.910Z,52.08
2023-04-17T13:15:31.803Z,51.37
2023-04-17T13:16:33.747Z,51.50
2023-04-17T13:17:36.115Z,51.43
2023-04-17T13:18:38.004Z,51.07
2023-04-17T13:19:40.137Z,51.67
2023-04-17T13:20:42.587Z,52.04
2023-04-17T13:21:44.445Z,52.59
2023-04-17T13:22:46.350Z,52.04
2023-04-17T13:23:48.204Z,50.88
2023-04-17T13:24:50.170Z,50.09
2023-04-17T13:25:52.495Z,50.72
2023-04-17T13:26:58.160Z,50.71
2023-04-17T13:28:00.206Z,51.13
2023-04-17T13:29:02.181Z,50.82
2023-04-17T13:30:04.398Z,50.16
2023-04-17T13:31:06.604Z,50.86
2023-04-17T13:32:09.520Z,50.60
2023-04-17T13:33:11.611Z,50.91
2023-04-17T13:34:13.554Z,51.65
2023-04-17T13:35:15.487Z,51.05
2023-04-17T13:36:17.625Z,50.98
2023-04-17T13:37:20.675Z,50.31
2023-04-17T13:38:22.604Z,50.59
2023-04-17T13:39:24.542Z,50.92